EKVJ/STA METAR and TAF weather

Enter ICAO airport designator
Station Type Date Time Source
EKVJ METAR 2019/10/18 06:20 UTC NOAA

EKVJ 180620Z 14007KT 5000 BR BKN006 10/10 Q1005


Station Type Date Time Source
EKVJ Decoded METAR 2019/10/18 06:20 UTC NOAA

Stauning Lufthavn, Denmark (EKVJ) 56-00N 008-21E 5M
Oct 18, 2019 - 02:20 AM EDT / 2019.10.18 0620 UTC
Wind: from the SE (140 degrees) at 8 MPH (7 KT):0
Visibility: 3 mile(s):0
Sky conditions: mostly cloudy
Weather: mist
Temperature: 50 F (10 C)
Dew Point: 50 F (10 C)
Relative Humidity: 100%
Pressure (altimeter): 29.68 in. Hg (1005 hPa)
ob: EKVJ 180620Z 14007KT 5000 BR BKN006 10/10 Q1005
cycle: 6

Station Type Date Time Source
EKVJ TAF UTC NOAA

Error!

Example: see airport list